sensor_id;sensor_type;location;lat;lon;timestamp;P1;durP1;ratioP1;P2;durP2;ratioP2
14774;SDS011;7479;47.042;15.160;2022-09-12T05:59:49;10.43;;;2.40;;
14774;SDS011;7479;47.042;15.160;2022-09-12T06:17:48;8.53;;;2.40;;
14774;SDS011;7479;47.042;15.160;2022-09-12T06:22:42;6.30;;;2.50;;
14774;SDS011;7479;47.042;15.160;2022-09-12T06:41:06;22.83;;;4.60;;
14774;SDS011;7479;47.042;15.160;2022-09-12T06:46:01;7.13;;;2.67;;
14774;SDS011;7479;47.042;15.160;2022-09-12T07:01:16;5.50;;;2.40;;
14774;SDS011;7479;47.042;15.160;2022-09-12T07:06:11;7.33;;;2.47;;
14774;SDS011;7479;47.042;15.160;2022-09-12T07:24:50;1.63;;;1.50;;
14774;SDS011;7479;47.042;15.160;2022-09-12T07:29:44;2.67;;;1.30;;
14774;SDS011;7479;47.042;15.160;2022-09-12T07:48:32;3.47;;;1.47;;
14774;SDS011;7479;47.042;15.160;2022-09-12T07:53:26;2.37;;;1.30;;
14774;SDS011;7479;47.042;15.160;2022-09-12T07:58:23;2.10;;;1.00;;
14774;SDS011;7479;47.042;15.160;2022-09-12T08:03:19;1.20;;;1.10;;
14774;SDS011;7479;47.042;15.160;2022-09-12T08:08:14;1.25;;;1.00;;
14774;SDS011;7479;47.042;15.160;2022-09-12T08:13:08;1.25;;;1.15;;
14774;SDS011;7479;47.042;15.160;2022-09-12T08:18:01;0.80;;;0.80;;
14774;SDS011;7479;47.042;15.160;2022-09-12T08:22:55;2.28;;;1.05;;
14774;SDS011;7479;47.042;15.160;2022-09-12T08:27:50;2.25;;;1.00;;
14774;SDS011;7479;47.042;15.160;2022-09-12T08:32:44;1.42;;;1.00;;
14774;SDS011;7479;47.042;15.160;2022-09-12T08:37:37;3.08;;;1.00;;
14774;SDS011;7479;47.042;15.160;2022-09-12T08:42:32;2.50;;;1.10;;
14774;SDS011;7479;47.042;15.160;2022-09-12T08:47:39;3.92;;;1.17;;
14774;SDS011;7479;47.042;15.160;2022-09-12T08:52:37;1.25;;;1.10;;
14774;SDS011;7479;47.042;15.160;2022-09-12T08:57:35;5.65;;;1.70;;
14774;SDS011;7479;47.042;15.160;2022-09-12T09:02:37;3.58;;;1.10;;
14774;SDS011;7479;47.042;15.160;2022-09-12T09:08:02;4.97;;;1.13;;
14774;SDS011;7479;47.042;15.160;2022-09-12T09:13:15;2.78;;;1.10;;
14774;SDS011;7479;47.042;15.160;2022-09-12T09:18:39;1.13;;;1.02;;
14774;SDS011;7479;47.042;15.160;2022-09-12T09:23:39;1.40;;;1.30;;
14774;SDS011;7479;47.042;15.160;2022-09-12T09:28:38;1.30;;;1.20;;
14774;SDS011;7479;47.042;15.160;2022-09-12T09:33:34;2.60;;;1.00;;
14774;SDS011;7479;47.042;15.160;2022-09-12T09:38:32;1.00;;;0.90;;
14774;SDS011;7479;47.042;15.160;2022-09-12T09:43:34;1.00;;;1.00;;
14774;SDS011;7479;47.042;15.160;2022-09-12T09:48:30;29.08;;;2.78;;
14774;SDS011;7479;47.042;15.160;2022-09-12T09:53:30;1.60;;;1.10;;
14774;SDS011;7479;47.042;15.160;2022-09-12T09:58:31;1.73;;;1.10;;
14774;SDS011;7479;47.042;15.160;2022-09-12T10:03:29;1.33;;;1.15;;
14774;SDS011;7479;47.042;15.160;2022-09-12T10:08:24;1.10;;;1.00;;
14774;SDS011;7479;47.042;15.160;2022-09-12T10:13:22;1.48;;;1.42;;
14774;SDS011;7479;47.042;15.160;2022-09-12T10:18:35;1.38;;;1.05;;
14774;SDS011;7479;47.042;15.160;2022-09-12T10:23:31;1.30;;;1.20;;
14774;SDS011;7479;47.042;15.160;2022-09-12T10:28:30;2.50;;;1.50;;
14774;SDS011;7479;47.042;15.160;2022-09-12T10:33:28;1.00;;;1.00;;
14774;SDS011;7479;47.042;15.160;2022-09-12T10:38:24;1.00;;;1.00;;
14774;SDS011;7479;47.042;15.160;2022-09-12T10:43:24;2.05;;;1.33;;
14774;SDS011;7479;47.042;15.160;2022-09-12T10:48:24;1.23;;;0.95;;
14774;SDS011;7479;47.042;15.160;2022-09-12T10:53:21;2.47;;;1.02;;
14774;SDS011;7479;47.042;15.160;2022-09-12T10:58:31;1.92;;;1.20;;
14774;SDS011;7479;47.042;15.160;2022-09-12T11:03:54;1.00;;;1.00;;
14774;SDS011;7479;47.042;15.160;2022-09-12T11:09:04;1.17;;;1.00;;
14774;SDS011;7479;47.042;15.160;2022-09-12T11:14:06;1.88;;;0.90;;
14774;SDS011;7479;47.042;15.160;2022-09-12T11:19:21;1.20;;;1.10;;
14774;SDS011;7479;47.042;15.160;2022-09-12T11:24:33;1.10;;;1.00;;
14774;SDS011;7479;47.042;15.160;2022-09-12T11:29:45;1.27;;;0.95;;
14774;SDS011;7479;47.042;15.160;2022-09-12T11:34:44;1.50;;;0.90;;
14774;SDS011;7479;47.042;15.160;2022-09-12T11:39:48;2.88;;;1.23;;
14774;SDS011;7479;47.042;15.160;2022-09-12T11:44:47;1.25;;;1.02;;
14774;SDS011;7479;47.042;15.160;2022-09-12T11:49:48;1.65;;;0.88;;
14774;SDS011;7479;47.042;15.160;2022-09-12T11:54:44;0.80;;;0.80;;
14774;SDS011;7479;47.042;15.160;2022-09-12T11:59:46;2.67;;;1.10;;
14774;SDS011;7479;47.042;15.160;2022-09-12T12:04:50;1.92;;;1.00;;
14774;SDS011;7479;47.042;15.160;2022-09-12T12:09:54;1.35;;;1.10;;
14774;SDS011;7479;47.042;15.160;2022-09-12T12:14:49;0.95;;;0.90;;
14774;SDS011;7479;47.042;15.160;2022-09-12T12:19:46;1.52;;;0.90;;
14774;SDS011;7479;47.042;15.160;2022-09-12T12:24:57;1.63;;;1.27;;
14774;SDS011;7479;47.042;15.160;2022-09-12T12:36:06;58.15;;;6.95;;
14774;SDS011;7479;47.042;15.160;2022-09-12T12:46:35;1.90;;;1.10;;
14774;SDS011;7479;47.042;15.160;2022-09-12T12:56:48;0.80;;;0.80;;
14774;SDS011;7479;47.042;15.160;2022-09-12T13:01:54;0.93;;;0.93;;
14774;SDS011;7479;47.042;15.160;2022-09-12T13:06:57;1.30;;;1.20;;
14774;SDS011;7479;47.042;15.160;2022-09-12T13:11:59;2.67;;;1.30;;
14774;SDS011;7479;47.042;15.160;2022-09-12T13:16:57;0.90;;;0.90;;
14774;SDS011;7479;47.042;15.160;2022-09-12T13:21:58;1.50;;;1.40;;
14774;SDS011;7479;47.042;15.160;2022-09-12T13:26:53;1.90;;;0.90;;
14774;SDS011;7479;47.042;15.160;2022-09-12T13:31:49;2.72;;;0.98;;
14774;SDS011;7479;47.042;15.160;2022-09-12T13:37:01;1.10;;;0.95;;
14774;SDS011;7479;47.042;15.160;2022-09-12T13:42:29;0.90;;;0.90;;
14774;SDS011;7479;47.042;15.160;2022-09-12T13:47:32;2.42;;;1.10;;
14774;SDS011;7479;47.042;15.160;2022-09-12T13:52:32;1.45;;;1.10;;
14774;SDS011;7479;47.042;15.160;2022-09-12T13:57:28;1.23;;;0.93;;
14774;SDS011;7479;47.042;15.160;2022-09-12T14:02:25;1.70;;;1.13;;
14774;SDS011;7479;47.042;15.160;2022-09-12T14:07:22;1.00;;;1.00;;
14774;SDS011;7479;47.042;15.160;2022-09-12T14:12:21;0.90;;;0.90;;
14774;SDS011;7479;47.042;15.160;2022-09-12T14:17:17;1.23;;;1.13;;
14774;SDS011;7479;47.042;15.160;2022-09-12T14:22:19;1.20;;;1.10;;
14774;SDS011;7479;47.042;15.160;2022-09-12T14:27:14;2.05;;;0.90;;
14774;SDS011;7479;47.042;15.160;2022-09-12T14:32:16;5.50;;;1.23;;
14774;SDS011;7479;47.042;15.160;2022-09-12T14:37:15;1.15;;;1.10;;
14774;SDS011;7479;47.042;15.160;2022-09-12T14:42:10;1.23;;;1.10;;
14774;SDS011;7479;47.042;15.160;2022-09-12T14:47:10;1.02;;;1.00;;
14774;SDS011;7479;47.042;15.160;2022-09-12T14:52:20;1.02;;;0.90;;
14774;SDS011;7479;47.042;15.160;2022-09-12T14:57:29;0.98;;;0.95;;
14774;SDS011;7479;47.042;15.160;2022-09-12T15:02:30;1.20;;;1.10;;
14774;SDS011;7479;47.042;15.160;2022-09-12T15:07:28;1.27;;;1.17;;
14774;SDS011;7479;47.042;15.160;2022-09-12T15:12:24;1.05;;;1.00;;
14774;SDS011;7479;47.042;15.160;2022-09-12T15:17:18;1.45;;;0.98;;
14774;SDS011;7479;47.042;15.160;2022-09-12T15:22:13;2.00;;;0.90;;
14774;SDS011;7479;47.042;15.160;2022-09-12T15:27:08;1.10;;;1.00;;
14774;SDS011;7479;47.042;15.160;2022-09-12T15:32:03;1.17;;;1.08;;
14774;SDS011;7479;47.042;15.160;2022-09-12T15:36:58;1.67;;;0.80;;
14774;SDS011;7479;47.042;15.160;2022-09-12T15:41:53;1.88;;;0.90;;
14774;SDS011;7479;47.042;15.160;2022-09-12T15:46:47;1.88;;;1.00;;
14774;SDS011;7479;47.042;15.160;2022-09-12T15:51:41;3.00;;;0.90;;
14774;SDS011;7479;47.042;15.160;2022-09-12T15:56:34;2.42;;;1.10;;
14774;SDS011;7479;47.042;15.160;2022-09-12T16:01:30;1.02;;;1.00;;
14774;SDS011;7479;47.042;15.160;2022-09-12T16:06:24;2.28;;;1.10;;
14774;SDS011;7479;47.042;15.160;2022-09-12T16:11:18;1.92;;;1.10;;
14774;SDS011;7479;47.042;15.160;2022-09-12T16:16:14;2.55;;;1.15;;
14774;SDS011;7479;47.042;15.160;2022-09-12T16:21:09;2.40;;;1.40;;
14774;SDS011;7479;47.042;15.160;2022-09-12T16:26:06;2.05;;;1.88;;
14774;SDS011;7479;47.042;15.160;2022-09-12T16:30:59;2.55;;;2.13;;
14774;SDS011;7479;47.042;15.160;2022-09-12T16:35:59;2.17;;;1.98;;
14774;SDS011;7479;47.042;15.160;2022-09-12T16:40:59;2.47;;;1.80;;
14774;SDS011;7479;47.042;15.160;2022-09-12T16:45:59;2.00;;;1.80;;
14774;SDS011;7479;47.042;15.160;2022-09-12T16:50:57;5.85;;;2.05;;
14774;SDS011;7479;47.042;15.160;2022-09-12T16:55:55;4.05;;;1.95;;
14774;SDS011;7479;47.042;15.160;2022-09-12T17:00:50;2.92;;;1.50;;
14774;SDS011;7479;47.042;15.160;2022-09-12T17:05:56;7.35;;;1.70;;
14774;SDS011;7479;47.042;15.160;2022-09-12T17:10:50;3.05;;;1.73;;
14774;SDS011;7479;47.042;15.160;2022-09-12T17:15:43;4.10;;;1.83;;
14774;SDS011;7479;47.042;15.160;2022-09-12T17:20:39;3.35;;;1.88;;
14774;SDS011;7479;47.042;15.160;2022-09-12T17:25:32;3.67;;;2.33;;
14774;SDS011;7479;47.042;15.160;2022-09-12T17:30:26;3.83;;;1.88;;
14774;SDS011;7479;47.042;15.160;2022-09-12T17:35:19;4.70;;;2.25;;
14774;SDS011;7479;47.042;15.160;2022-09-12T17:40:14;3.75;;;2.13;;
14774;SDS011;7479;47.042;15.160;2022-09-12T17:45:08;3.30;;;2.10;;
14774;SDS011;7479;47.042;15.160;2022-09-12T17:50:08;5.05;;;2.47;;
14774;SDS011;7479;47.042;15.160;2022-09-12T17:55:23;5.13;;;3.92;;
14774;SDS011;7479;47.042;15.160;2022-09-12T18:00:16;6.32;;;5.28;;
14774;SDS011;7479;47.042;15.160;2022-09-12T18:05:31;7.30;;;4.70;;
14774;SDS011;7479;47.042;15.160;2022-09-12T18:10:26;4.68;;;4.28;;
14774;SDS011;7479;47.042;15.160;2022-09-12T18:15:19;6.18;;;4.72;;
14774;SDS011;7479;47.042;15.160;2022-09-12T18:20:13;5.40;;;3.60;;
14774;SDS011;7479;47.042;15.160;2022-09-12T18:25:07;5.78;;;4.28;;
14774;SDS011;7479;47.042;15.160;2022-09-12T18:30:02;6.15;;;4.10;;
14774;SDS011;7479;47.042;15.160;2022-09-12T18:35:12;4.30;;;2.70;;
14774;SDS011;7479;47.042;15.160;2022-09-12T18:40:06;3.85;;;2.50;;
14774;SDS011;7479;47.042;15.160;2022-09-12T18:45:01;4.22;;;2.60;;
14774;SDS011;7479;47.042;15.160;2022-09-12T18:49:55;5.53;;;2.72;;
14774;SDS011;7479;47.042;15.160;2022-09-12T18:54:49;5.20;;;3.90;;
14774;SDS011;7479;47.042;15.160;2022-09-12T18:59:42;3.97;;;2.33;;
14774;SDS011;7479;47.042;15.160;2022-09-12T19:04:37;5.70;;;3.13;;
14774;SDS011;7479;47.042;15.160;2022-09-12T19:09:31;6.15;;;2.50;;
14774;SDS011;7479;47.042;15.160;2022-09-12T19:14:25;3.55;;;2.33;;
14774;SDS011;7479;47.042;15.160;2022-09-12T19:19:19;2.22;;;2.03;;
14774;SDS011;7479;47.042;15.160;2022-09-12T19:24:15;5.10;;;2.58;;
14774;SDS011;7479;47.042;15.160;2022-09-12T19:29:09;4.03;;;2.30;;
14774;SDS011;7479;47.042;15.160;2022-09-12T19:34:05;4.60;;;2.45;;
14774;SDS011;7479;47.042;15.160;2022-09-12T19:38:59;4.18;;;2.55;;
14774;SDS011;7479;47.042;15.160;2022-09-12T19:43:55;3.55;;;3.15;;
